Time;durP1;ratioP1;P1;durP2;ratioP2;P2;SDS_P1;SDS_P2;PMS_P1;PMS_P2;Temp;Humidity;BMP_temperature;BMP_pressure;BME280_temperature;BME280_humidity;BME280_pressure;Samples;Min_cycle;Max_cycle;Signal;HPM_P1;HPM_P2
2021/05/09 08:34:26;;;;;;;1.95;1.08;;;26.30;35.20;;;;;;6016332;29;20032;-83
2021/05/09 08:37:29;;;;;;;2.38;1.08;;;26.80;32.70;;;;;;6114232;29;20016;-81
2021/05/09 08:40:32;;;;;;;3.50;0.75;;;27.00;30.80;;;;;;6124053;29;20024;-81
2021/05/09 08:43:33;;;;;;;2.70;0.90;;;27.30;29.70;;;;;;6125603;29;20470;-80
2021/05/09 08:46:37;;;;;;;3.90;0.95;;;27.70;28.90;;;;;;6115459;29;20051;-80
2021/05/09 08:49:41;;;;;;;7.68;0.80;;;28.00;29.20;;;;;;6100091;29;20034;-81
2021/05/09 08:52:43;;;;;;;1.25;1.00;;;28.30;28.20;;;;;;6115601;29;20118;-82
2021/05/09 08:55:45;;;;;;;4.57;0.77;;;28.60;28.10;;;;;;6115737;29;20093;-81
2021/05/09 08:58:47;;;;;;;2.65;1.08;;;28.70;27.40;;;;;;6116083;29;20031;-80
2021/05/09 09:01:49;;;;;;;2.75;0.90;;;28.90;26.60;;;;;;6131038;29;20035;-80
2021/05/09 09:04:55;;;;;;;1.08;0.70;;;28.90;25.80;;;;;;6118684;29;20606;-79
2021/05/09 09:07:56;;;;;;;1.92;0.85;;;29.00;26.00;;;;;;6116045;29;20035;-79
2021/05/09 09:10:59;;;;;;;1.25;0.77;;;29.00;25.80;;;;;;6134425;29;20126;-80
2021/05/09 09:14:11;;;;;;;4.00;0.70;;;29.10;25.50;;;;;;6111688;29;20048;-78
2021/05/09 09:17:16;;;;;;;1.90;1.05;;;29.20;26.20;;;;;;6115154;29;20493;-81
2021/05/09 09:20:18;;;;;;;3.30;0.90;;;29.30;25.30;;;;;;6102566;29;20032;-80
2021/05/09 09:23:19;;;;;;;0.60;0.60;;;29.40;25.50;;;;;;6116133;29;20043;-79
2021/05/09 09:26:29;;;;;;;1.10;0.75;;;29.60;25.30;;;;;;6116147;29;20028;-80
2021/05/09 09:29:38;;;;;;;2.30;0.80;;;29.60;25.30;;;;;;6130033;29;20031;-78
2021/05/09 09:32:39;;;;;;;1.95;0.70;;;29.70;25.20;;;;;;6123008;29;20055;-79
2021/05/09 09:35:42;;;;;;;1.90;0.75;;;29.80;24.40;;;;;;6125541;29;20034;-77
2021/05/09 09:38:49;;;;;;;1.85;0.77;;;29.80;24.40;;;;;;6132032;29;20106;-79
2021/05/09 09:41:50;;;;;;;4.07;0.90;;;29.70;23.90;;;;;;6135830;29;20032;-79
2021/05/09 09:45:18;;;;;;;0.60;0.60;;;29.60;24.00;;;;;;6114983;29;20035;-78
2021/05/09 09:48:19;;;;;;;1.95;0.80;;;29.40;24.30;;;;;;6126554;29;20070;-77
2021/05/09 09:51:21;;;;;;;2.72;0.70;;;29.30;23.90;;;;;;6131381;29;20054;-77
2021/05/09 09:54:40;;;;;;;2.63;0.63;;;29.20;24.20;;;;;;6115948;29;20518;-78
2021/05/09 09:57:41;;;;;;;1.02;0.60;;;29.10;24.30;;;;;;6131465;29;20031;-76
2021/05/09 10:00:46;;;;;;;4.53;1.25;;;29.10;24.30;;;;;;6112497;29;20031;-78
2021/05/09 10:03:48;;;;;;;1.80;0.90;;;29.10;24.40;;;;;;6113612;29;20035;-80
2021/05/09 10:06:49;;;;;;;3.83;0.98;;;29.20;24.30;;;;;;6112395;29;20063;-77
2021/05/09 10:09:50;;;;;;;2.20;0.80;;;29.40;24.30;;;;;;6113061;29;20522;-77
2021/05/09 10:12:51;;;;;;;3.03;0.85;;;29.50;24.50;;;;;;6129361;29;20038;-78
2021/05/09 10:15:53;;;;;;;3.08;0.70;;;29.50;24.30;;;;;;6112655;29;20511;-77
2021/05/09 10:19:03;;;;;;;3.28;1.02;;;29.70;24.40;;;;;;6129752;29;20032;-80
2021/05/09 10:22:25;;;;;;;2.72;0.75;;;29.80;24.00;;;;;;6113622;29;20027;-79
2021/05/09 10:25:56;;;;;;;1.60;0.70;;;29.90;23.30;;;;;;6109962;29;20038;-80
2021/05/09 10:28:57;;;;;;;1.48;0.65;;;30.00;23.50;;;;;;6112337;29;20474;-79
2021/05/09 10:32:09;;;;;;;5.75;0.95;;;30.20;23.60;;;;;;6113068;29;20363;-78
2021/05/09 10:35:11;;;;;;;3.38;0.70;;;30.20;23.30;;;;;;6113150;29;20037;-78
2021/05/09 10:38:12;;;;;;;5.32;0.85;;;30.30;23.00;;;;;;6112568;29;20460;-78
2021/05/09 10:41:14;;;;;;;1.00;0.75;;;30.40;23.10;;;;;;6112497;29;20032;-79
2021/05/09 10:44:37;;;;;;;1.33;0.65;;;30.50;22.30;;;;;;6111594;29;20159;-79
2021/05/09 10:47:38;;;;;;;1.60;0.60;;;30.60;22.30;;;;;;6128416;29;20035;-79
2021/05/09 10:50:44;;;;;;;1.45;0.70;;;30.80;22.40;;;;;;6113067;29;20477;-79
2021/05/09 10:53:45;;;;;;;0.95;0.70;;;31.10;21.90;;;;;;6112633;29;20178;-79
2021/05/09 10:56:46;;;;;;;1.08;0.98;;;31.80;21.50;;;;;;6112943;29;20042;-79
2021/05/09 11:00:00;;;;;;;1.00;0.63;;;32.10;21.10;;;;;;6113214;29;20032;-79
2021/05/09 11:03:01;;;;;;;1.25;0.90;;;32.50;20.90;;;;;;6124190;29;20087;-80
2021/05/09 11:06:04;;;;;;;2.25;0.82;;;33.00;20.40;;;;;;6112679;29;20032;-79
2021/05/09 11:09:08;;;;;;;0.75;0.65;;;33.50;19.70;;;;;;6099085;29;20142;-80
2021/05/09 11:12:10;;;;;;;1.00;0.60;;;33.50;19.60;;;;;;6112771;29;20036;-80
2021/05/09 11:15:13;;;;;;;0.77;0.63;;;33.40;19.90;;;;;;6097510;29;20180;-80
2021/05/09 11:18:15;;;;;;;5.25;1.00;;;33.10;20.30;;;;;;6113515;29;20055;-79
2021/05/09 11:21:20;;;;;;;7.47;1.00;;;33.00;20.60;;;;;;6113160;29;20036;-80
2021/05/09 11:24:33;;;;;;;5.53;0.75;;;32.70;20.60;;;;;;6112818;29;20474;-80
2021/05/09 11:27:34;;;;;;;0.95;0.50;;;32.50;20.80;;;;;;6107616;29;20037;-81
2021/05/09 11:30:36;;;;;;;1.95;0.80;;;32.30;20.80;;;;;;6126799;29;20042;-79
2021/05/09 11:33:56;;;;;;;3.00;0.80;;;32.10;21.10;;;;;;6113640;29;20047;-81
2021/05/09 11:37:01;;;;;;;2.28;0.50;;;32.10;21.20;;;;;;6118228;29;20031;-88
2021/05/09 11:40:04;;;;;;;6.10;0.77;;;32.20;21.20;;;;;;6122509;29;20391;-80
2021/05/09 11:43:14;;;;;;;1.20;0.60;;;32.20;20.90;;;;;;6126074;29;20382;-86
2021/05/09 11:46:19;;;;;;;1.02;0.55;;;32.10;21.20;;;;;;6119193;29;20047;-85
2021/05/09 11:49:22;;;;;;;1.92;0.75;;;32.10;21.30;;;;;;6117619;29;20038;-86
2021/05/09 11:52:33;;;;;;;2.50;1.00;;;32.00;21.20;;;;;;6104288;29;20067;-83
2021/05/09 11:55:34;;;;;;;3.92;0.80;;;32.10;21.40;;;;;;6134538;29;20032;-86
2021/05/09 11:58:39;;;;;;;1.15;0.70;;;32.30;21.20;;;;;;6117514;29;20026;-85
2021/05/09 12:01:41;;;;;;;3.00;0.70;;;32.40;21.00;;;;;;6119041;29;20075;-89
2021/05/09 12:05:02;;;;;;;1.02;0.65;;;32.60;20.90;;;;;;6118912;29;20115;-86
2021/05/09 12:08:07;;;;;;;2.05;0.50;;;33.00;20.70;;;;;;6123989;29;20067;-86
2021/05/09 12:11:08;;;;;;;3.28;0.80;;;33.50;20.50;;;;;;6124476;29;20027;-89
2021/05/09 12:14:10;;;;;;;1.20;0.80;;;33.80;20.30;;;;;;6119800;29;20414;-83
2021/05/09 12:17:40;;;;;;;1.52;0.82;;;34.30;20.00;;;;;;6117406;29;20024;-88
2021/05/09 12:20:44;;;;;;;1.13;0.60;;;34.90;19.80;;;;;;6116220;29;20106;-81
2021/05/09 12:23:48;;;;;;;2.67;0.70;;;35.30;19.00;;;;;;6117593;29;20027;-88
2021/05/09 12:27:16;;;;;;;2.10;1.00;;;35.10;18.70;;;;;;6105985;29;20462;-81
2021/05/09 12:30:18;;;;;;;1.50;0.70;;;35.00;18.80;;;;;;6119080;29;20086;-88
2021/05/09 12:33:31;;;;;;;1.45;0.82;;;35.10;19.10;;;;;;6098725;29;20052;-85
2021/05/09 12:36:34;;;;;;;2.92;0.75;;;35.40;18.80;;;;;;6083745;29;20459;-89
2021/05/09 12:39:38;;;;;;;2.22;0.80;;;36.10;18.70;;;;;;6071247;29;20183;-86
2021/05/09 12:43:08;;;;;;;2.45;1.02;;;36.80;18.20;;;;;;6069350;29;20033;-76
2021/05/09 12:46:29;;;;;;;0.98;0.63;;;37.20;17.50;;;;;;6082056;29;20132;-84
2021/05/09 12:49:32;;;;;;;1.48;0.82;;;37.00;17.40;;;;;;6104698;29;20103;-82
2021/05/09 12:52:47;;;;;;;3.83;0.70;;;36.60;18.00;;;;;;6087137;29;20021;-82
2021/05/09 12:55:48;;;;;;;0.68;0.65;;;36.10;18.30;;;;;;6082998;29;20031;-84
2021/05/09 12:59:08;;;;;;;1.92;0.75;;;35.50;18.40;;;;;;6084193;29;20032;-82
2021/05/09 13:02:09;;;;;;;1.08;0.68;;;34.90;18.90;;;;;;6098636;29;20062;-81
2021/05/09 13:05:22;;;;;;;0.68;0.68;;;34.80;19.10;;;;;;6084519;29;20478;-81
2021/05/09 13:08:23;;;;;;;0.88;0.60;;;35.60;18.60;;;;;;6095989;29;20029;-81
2021/05/09 13:11:24;;;;;;;1.55;0.73;;;36.30;17.80;;;;;;6068163;29;20115;-81
2021/05/09 13:14:25;;;;;;;0.80;0.80;;;36.70;17.00;;;;;;6084607;29;20036;-81
2021/05/09 13:17:26;;;;;;;4.97;0.80;;;37.80;16.70;;;;;;6086379;29;20021;-81
2021/05/09 13:20:27;;;;;;;2.33;0.80;;;38.30;16.40;;;;;;6078126;29;20033;-79
2021/05/09 13:23:28;;;;;;;1.70;0.57;;;38.80;16.20;;;;;;6097603;29;20028;-79
2021/05/09 13:26:30;;;;;;;1.23;0.65;;;39.60;15.50;;;;;;6081006;29;20371;-79
2021/05/09 13:29:32;;;;;;;1.65;0.70;;;40.50;14.30;;;;;;6069611;29;20033;-82
2021/05/09 13:32:33;;;;;;;1.80;0.68;;;40.70;13.60;;;;;;6089704;29;20047;-82
2021/05/09 13:35:34;;;;;;;0.50;0.50;;;40.90;13.70;;;;;;6114386;29;20032;-82
2021/05/09 13:38:35;;;;;;;6.05;0.95;;;41.50;13.30;;;;;;6132085;29;20082;-82
2021/05/09 13:41:38;;;;;;;0.60;0.60;;;41.90;13.10;;;;;;6115391;29;20035;-81
2021/05/09 13:44:40;;;;;;;5.15;0.90;;;42.20;13.00;;;;;;6115539;29;20031;-81
2021/05/09 13:47:41;;;;;;;1.42;0.70;;;42.50;13.20;;;;;;6099429;29;20114;-80
2021/05/09 13:50:42;;;;;;;2.40;0.70;;;42.80;12.10;;;;;;6114771;29;20035;-83
2021/05/09 13:53:44;;;;;;;1.17;0.77;;;43.20;12.00;;;;;;6114860;29;20039;-82
2021/05/09 13:56:45;;;;;;;3.67;1.05;;;43.60;11.50;;;;;;6114293;29;20368;-82
2021/05/09 13:59:46;;;;;;;2.05;1.20;;;44.00;11.70;;;;;;6108688;29;20039;-83
2021/05/09 14:02:47;;;;;;;1.33;0.60;;;44.40;11.30;;;;;;6115027;29;20107;-84
2021/05/09 14:05:49;;;;;;;4.13;1.00;;;44.60;11.00;;;;;;6131138;29;20367;-82
2021/05/09 14:08:53;;;;;;;4.28;0.95;;;44.80;11.50;;;;;;6131000;29;20039;-82
2021/05/09 14:12:03;;;;;;;2.10;0.98;;;44.80;11.70;;;;;;6110416;29;20027;-83
2021/05/09 14:15:05;;;;;;;1.67;1.13;;;45.20;11.70;;;;;;6114470;29;20043;-83
2021/05/09 14:18:07;;;;;;;2.03;0.70;;;45.90;10.90;;;;;;6131257;29;20379;-83
2021/05/09 14:21:08;;;;;;;0.60;0.60;;;46.00;10.80;;;;;;6131080;29;20042;-83
2021/05/09 14:24:09;;;;;;;4.90;0.98;;;46.20;10.90;;;;;;6114784;29;20095;-81
2021/05/09 14:27:10;;;;;;;1.92;1.05;;;46.70;10.90;;;;;;6114108;29;20036;-83
2021/05/09 14:30:14;;;;;;;0.80;0.52;;;46.90;10.60;;;;;;6115275;29;20036;-83
2021/05/09 14:33:15;;;;;;;0.77;0.60;;;46.20;10.50;;;;;;6114175;29;20115;-83
2021/05/09 14:36:18;;;;;;;2.13;0.90;;;44.20;11.00;;;;;;6082623;29;20036;-82
2021/05/09 14:39:19;;;;;;;2.05;0.80;;;42.10;12.20;;;;;;6082999;29;20029;-82
2021/05/09 14:42:20;;;;;;;0.90;0.60;;;40.50;13.30;;;;;;6091802;29;20043;-78
2021/05/09 14:45:21;;;;;;;1.02;0.55;;;39.20;13.70;;;;;;6082582;29;20101;-81
2021/05/09 14:48:22;;;;;;;0.75;0.70;;;38.10;14.30;;;;;;6113885;29;20032;-81
2021/05/09 14:51:23;;;;;;;1.58;0.68;;;37.10;14.80;;;;;;6082266;29;20078;-81
2021/05/09 14:54:24;;;;;;;0.60;0.50;;;36.40;15.30;;;;;;6081901;29;20036;-80
2021/05/09 14:57:30;;;;;;;2.17;0.90;;;35.70;15.80;;;;;;6082466;29;20121;-79
2021/05/09 15:00:31;;;;;;;0.95;0.65;;;35.10;16.30;;;;;;6082217;29;20137;-80
2021/05/09 15:03:33;;;;;;;0.65;0.60;;;34.50;16.80;;;;;;6082552;29;20456;-79
2021/05/09 15:06:37;;;;;;;1.35;0.85;;;34.00;17.30;;;;;;6081545;29;20379;-79
2021/05/09 15:09:38;;;;;;;2.45;0.70;;;33.50;17.60;;;;;;6092641;29;20080;-79
2021/05/09 15:12:39;;;;;;;2.75;0.82;;;33.10;17.90;;;;;;6106357;29;20139;-79
2021/05/09 15:15:40;;;;;;;1.42;0.70;;;32.90;18.30;;;;;;6083067;29;20309;-79
2021/05/09 15:18:41;;;;;;;1.85;0.57;;;32.70;18.40;;;;;;6085619;29;20024;-79
2021/05/09 15:21:42;;;;;;;5.28;1.10;;;32.60;18.50;;;;;;6110995;29;20073;-81
2021/05/09 15:24:43;;;;;;;3.95;1.50;;;32.50;18.70;;;;;;6108616;29;20040;-76
2021/05/09 15:27:44;;;;;;;1.42;0.75;;;32.30;19.00;;;;;;6079995;29;20456;-79
2021/05/09 15:30:45;;;;;;;0.70;0.52;;;32.30;19.30;;;;;;6080771;29;20032;-79
2021/05/09 15:33:46;;;;;;;1.10;1.00;;;32.30;19.10;;;;;;6081813;29;20104;-80
2021/05/09 15:36:47;;;;;;;0.77;0.68;;;32.30;19.10;;;;;;6082713;29;20088;-80
2021/05/09 15:39:49;;;;;;;6.25;0.75;;;32.40;19.10;;;;;;6097597;29;20080;-80
2021/05/09 15:42:52;;;;;;;3.33;0.68;;;32.40;18.90;;;;;;6068095;29;20144;-80
2021/05/09 15:45:53;;;;;;;0.60;0.60;;;32.30;19.10;;;;;;6078274;29;20033;-81
2021/05/09 15:48:54;;;;;;;1.38;0.70;;;32.60;18.90;;;;;;6065135;29;20503;-82
2021/05/09 15:51:57;;;;;;;1.05;0.80;;;33.20;18.50;;;;;;6080647;29;20040;-81
2021/05/09 15:54:58;;;;;;;4.25;1.35;;;34.60;18.00;;;;;;6064995;29;20025;-81
2021/05/09 15:57:59;;;;;;;1.23;1.02;;;36.30;17.20;;;;;;6064609;29;20040;-83
2021/05/09 16:01:00;;;;;;;3.13;0.88;;;37.70;16.00;;;;;;6096056;29;20028;-81
2021/05/09 16:04:01;;;;;;;1.90;1.02;;;38.80;15.20;;;;;;6083279;29;20123;-81
2021/05/09 16:07:02;;;;;;;1.48;0.68;;;39.10;14.80;;;;;;6099359;29;20035;-80
2021/05/09 16:10:05;;;;;;;3.33;0.82;;;38.50;14.40;;;;;;6101030;29;20028;-81
2021/05/09 16:13:07;;;;;;;3.30;0.80;;;38.30;14.30;;;;;;6093257;29;20024;-80
2021/05/09 16:16:09;;;;;;;3.03;0.70;;;38.70;14.20;;;;;;6083243;29;20039;-80
2021/05/09 16:19:11;;;;;;;3.33;1.17;;;39.10;14.10;;;;;;6101674;29;20035;-80
2021/05/09 16:22:12;;;;;;;2.25;0.70;;;39.70;13.80;;;;;;6102867;29;20067;-79
2021/05/09 16:25:14;;;;;;;5.05;1.35;;;40.30;13.80;;;;;;6089847;29;20036;-80
2021/05/09 16:28:15;;;;;;;3.63;0.93;;;40.90;13.70;;;;;;6107102;29;20367;-82
2021/05/09 16:31:16;;;;;;;4.00;1.00;;;41.10;13.40;;;;;;6084529;29;20510;-80
2021/05/09 16:34:19;;;;;;;0.70;0.70;;;41.10;13.60;;;;;;6096131;29;20056;-80
2021/05/09 16:37:20;;;;;;;3.40;0.70;;;40.90;13.60;;;;;;6086978;29;20025;-80
2021/05/09 16:40:21;;;;;;;3.10;1.17;;;40.20;13.80;;;;;;6103476;29;20572;-81
2021/05/09 16:43:22;;;;;;;4.30;0.73;;;38.90;13.90;;;;;;6079942;29;20068;-80
2021/05/09 16:46:23;;;;;;;1.70;0.93;;;37.50;14.50;;;;;;6067970;29;20092;-83
2021/05/09 16:49:25;;;;;;;2.47;0.70;;;36.30;15.10;;;;;;6088348;29;20043;-80
2021/05/09 16:52:27;;;;;;;1.15;0.80;;;35.40;15.80;;;;;;6090692;29;20119;-81
2021/05/09 16:55:28;;;;;;;1.83;0.60;;;34.60;16.40;;;;;;6060733;29;20020;-81
2021/05/09 16:58:29;;;;;;;2.15;0.70;;;34.10;16.80;;;;;;6085993;29;20028;-83
2021/05/09 17:01:32;;;;;;;5.32;1.20;;;33.60;17.20;;;;;;6084772;29;20456;-82
2021/05/09 17:04:33;;;;;;;2.17;1.10;;;33.20;17.50;;;;;;6080698;29;20060;-81
2021/05/09 17:07:34;;;;;;;1.85;1.10;;;32.90;17.80;;;;;;6083305;29;20147;-81
2021/05/09 17:10:36;;;;;;;0.98;0.65;;;32.60;18.10;;;;;;6082592;29;20040;-81
2021/05/09 17:13:37;;;;;;;2.17;0.93;;;32.40;18.40;;;;;;6082576;29;20029;-81
2021/05/09 17:16:38;;;;;;;4.78;0.85;;;32.20;18.70;;;;;;6087736;29;20340;-80
2021/05/09 17:19:39;;;;;;;1.13;0.57;;;32.00;19.00;;;;;;6089307;29;20056;-81
2021/05/09 17:22:41;;;;;;;3.30;0.90;;;31.80;19.30;;;;;;6085881;29;20479;-81
2021/05/09 17:25:42;;;;;;;1.48;0.90;;;31.50;19.60;;;;;;6091776;29;20069;-81
2021/05/09 17:28:43;;;;;;;2.08;1.30;;;31.30;19.80;;;;;;6100119;29;20033;-81
2021/05/09 17:31:45;;;;;;;1.08;0.88;;;31.10;20.00;;;;;;6099309;29;20082;-81
2021/05/09 17:34:46;;;;;;;2.92;0.70;;;31.00;20.30;;;;;;6114796;29;20039;-80
2021/05/09 17:37:48;;;;;;;2.92;1.10;;;30.80;20.50;;;;;;6116386;29;20042;-79
2021/05/09 17:40:49;;;;;;;0.80;0.57;;;30.60;20.70;;;;;;6118281;29;20068;-79
2021/05/09 17:43:51;;;;;;;0.93;0.80;;;30.50;20.90;;;;;;6132571;29;20032;-81
2021/05/09 17:46:57;;;;;;;1.15;0.95;;;30.30;21.00;;;;;;6107656;29;20028;-80
2021/05/09 17:49:59;;;;;;;1.13;0.63;;;30.30;21.10;;;;;;6115294;29;20064;-79
2021/05/09 17:53:00;;;;;;;1.42;0.85;;;30.20;21.20;;;;;;6119372;29;20040;-84
2021/05/09 17:56:01;;;;;;;1.58;0.70;;;30.10;21.30;;;;;;6111557;29;20371;-82
2021/05/09 17:59:02;;;;;;;2.55;0.70;;;30.00;21.40;;;;;;6107179;29;20039;-81
2021/05/09 18:02:04;;;;;;;4.90;0.80;;;30.00;21.40;;;;;;6111479;29;20036;-83
2021/05/09 18:05:06;;;;;;;3.15;0.77;;;29.90;21.50;;;;;;6111130;29;20127;-84
2021/05/09 18:08:19;;;;;;;;;;;;;;;;;;;;;
2021/05/09 18:11:28;;;;;;;0.95;0.63;;;29.90;21.60;;;;;;6111340;29;20044;-84
2021/05/09 18:14:39;;;;;;;5.60;0.95;;;29.60;21.70;;;;;;6110659;29;20052;-85
2021/05/09 18:17:59;;;;;;;1.50;0.80;;;29.60;21.60;;;;;;6128488;29;20039;-82
2021/05/09 18:24:12;;;;;;;1.17;0.77;;;29.40;21.40;;;;;;6113647;29;20382;-80
2021/05/09 18:27:15;;;;;;;2.25;1.10;;;29.30;21.40;;;;;;6130612;29;20463;-82
2021/05/09 18:30:16;;;;;;;2.65;0.80;;;29.30;21.60;;;;;;6116008;29;20044;-84
2021/05/09 18:33:22;;;;;;;3.58;0.80;;;29.20;22.10;;;;;;6100666;29;20080;-79
2021/05/09 18:36:33;;;;;;;7.82;1.10;;;29.10;21.60;;;;;;6087303;29;20063;-81
2021/05/09 18:39:34;;;;;;;5.38;1.42;;;29.00;21.80;;;;;;6080680;29;20036;-80
2021/05/09 18:42:41;;;;;;;3.85;1.27;;;29.00;22.00;;;;;;6084720;29;20028;-81
2021/05/09 18:45:45;;;;;;;1.33;1.02;;;28.90;22.10;;;;;;6098108;29;20115;-81
2021/05/09 18:48:47;;;;;;;4.03;0.80;;;28.80;22.20;;;;;;6084515;29;20096;-83
2021/05/09 18:51:54;;;;;;;3.70;0.68;;;28.80;22.20;;;;;;6085109;29;20069;-80
2021/05/09 18:54:55;;;;;;;1.90;1.27;;;28.70;22.30;;;;;;6084033;29;20065;-81
2021/05/09 18:57:56;;;;;;;3.53;1.40;;;28.60;22.30;;;;;;6086157;29;20468;-84
2021/05/09 19:00:57;;;;;;;3.15;1.35;;;28.60;22.50;;;;;;6084483;29;20047;-81
2021/05/09 19:04:02;;;;;;;4.10;1.05;;;28.60;22.50;;;;;;6070033;29;20043;-82
2021/05/09 19:07:17;;;;;;;4.35;0.90;;;28.50;22.50;;;;;;6084994;29;20044;-82
2021/05/09 19:10:28;;;;;;;1.55;1.00;;;28.50;22.70;;;;;;6070338;29;20059;-83
2021/05/09 19:13:30;;;;;;;0.95;0.70;;;28.50;22.80;;;;;;6085603;29;20040;-81
2021/05/09 19:16:35;;;;;;;2.55;1.40;;;28.50;22.70;;;;;;6084860;29;20119;-81
2021/05/09 19:19:39;;;;;;;4.90;1.73;;;28.50;23.00;;;;;;6083854;29;20064;-82
2021/05/09 19:22:44;;;;;;;2.90;1.73;;;28.50;23.10;;;;;;6081597;29;20039;-81
2021/05/09 19:25:50;;;;;;;1.83;1.17;;;28.50;23.30;;;;;;6079700;29;20041;-82
2021/05/09 19:29:05;;;;;;;2.35;1.48;;;28.40;23.40;;;;;;6084145;29;20448;-81
2021/05/09 19:32:06;;;;;;;1.40;1.08;;;28.30;23.40;;;;;;6085699;29;20036;-81
2021/05/09 19:35:08;;;;;;;3.25;0.82;;;28.30;23.50;;;;;;6108506;29;20031;-81
2021/05/09 19:38:10;;;;;;;1.52;0.70;;;28.20;23.30;;;;;;6115350;29;21515;-83
2021/05/09 19:41:11;;;;;;;2.17;0.85;;;28.20;23.30;;;;;;6114299;29;20091;-83
2021/05/09 19:44:12;;;;;;;0.85;0.70;;;28.20;23.30;;;;;;6114709;29;20036;-81
2021/05/09 19:47:15;;;;;;;5.53;1.15;;;28.20;23.40;;;;;;6130923;29;20054;-82
2021/05/09 19:50:19;;;;;;;1.05;0.70;;;28.10;23.40;;;;;;6132640;29;20109;-83
2021/05/09 19:53:23;;;;;;;3.55;0.80;;;28.10;23.40;;;;;;6116029;29;20036;-86
2021/05/09 19:56:25;;;;;;;1.50;0.93;;;28.00;23.20;;;;;;6120073;29;20118;-85
2021/05/09 19:59:27;;;;;;;2.17;0.90;;;28.00;23.90;;;;;;6119805;29;20056;-83
2021/05/09 20:02:32;;;;;;;2.78;1.05;;;28.00;23.40;;;;;;6103012;29;20031;-85
2021/05/09 20:05:33;;;;;;;2.60;1.23;;;28.00;23.30;;;;;;6137356;29;20059;-85
2021/05/09 20:08:37;;;;;;;6.07;1.02;;;28.00;23.20;;;;;;6124305;29;20042;-83
2021/05/09 20:11:41;;;;;;;4.88;1.17;;;28.00;23.20;;;;;;6127073;29;20555;-83
2021/05/09 20:14:45;;;;;;;2.72;1.17;;;28.00;23.20;;;;;;6124381;29;20412;-82
2021/05/09 20:17:49;;;;;;;1.20;0.60;;;28.00;23.10;;;;;;6131370;29;20102;-82
2021/05/09 20:20:55;;;;;;;4.05;0.80;;;28.00;22.90;;;;;;6125036;29;20058;-81
2021/05/09 20:23:57;;;;;;;4.63;1.08;;;28.00;23.00;;;;;;6127818;29;20119;-83
2021/05/09 20:27:01;;;;;;;5.43;0.80;;;28.00;23.00;;;;;;6133999;29;20031;-86
2021/05/09 20:30:08;;;;;;;0.73;0.63;;;28.00;23.20;;;;;;6124429;29;20037;-84
2021/05/09 20:33:19;;;;;;;0.82;0.80;;;28.00;23.30;;;;;;6144714;29;20035;-82
2021/05/09 20:36:24;;;;;;;4.40;0.88;;;27.90;23.40;;;;;;6136271;29;20039;-83
2021/05/09 20:39:29;;;;;;;1.50;0.80;;;27.90;23.50;;;;;;6139775;29;20027;-82
2021/05/09 20:42:37;;;;;;;1.08;0.80;;;27.90;23.50;;;;;;6135845;29;20027;-80
2021/05/09 20:45:41;;;;;;;0.80;0.80;;;27.80;23.40;;;;;;6141913;29;20046;-81
2021/05/09 20:48:49;;;;;;;2.03;0.80;;;27.80;23.50;;;;;;6144480;29;20290;-80
2021/05/09 20:52:08;;;;;;;4.05;0.60;;;27.70;23.50;;;;;;6119764;29;20052;-81
2021/05/09 20:55:15;;;;;;;4.35;0.63;;;27.70;23.60;;;;;;6105043;29;20122;-80
2021/05/09 20:58:23;;;;;;;1.43;0.90;;;27.60;24.10;;;;;;6122304;29;20066;-81
2021/05/09 21:01:26;;;;;;;2.90;1.10;;;27.60;23.50;;;;;;6150388;29;20039;-80
2021/05/09 21:04:36;;;;;;;7.57;1.00;;;27.60;23.60;;;;;;6149600;29;20028;-81
2021/05/09 21:07:41;;;;;;;5.10;1.00;;;27.60;23.60;;;;;;6140367;29;20064;-80
2021/05/09 21:10:46;;;;;;;0.85;0.80;;;27.60;23.60;;;;;;6145633;29;20031;-81
2021/05/09 21:13:47;;;;;;;1.50;0.90;;;27.60;23.50;;;;;;6134072;29;20106;-80
2021/05/09 21:16:48;;;;;;;1.35;0.68;;;27.50;23.50;;;;;;6134185;29;20039;-79
2021/05/09 21:19:50;;;;;;;2.13;0.73;;;27.50;23.60;;;;;;6132697;29;20031;-80
2021/05/09 21:22:53;;;;;;;1.80;0.88;;;27.50;23.60;;;;;;6126772;29;20034;-80
2021/05/09 21:25:54;;;;;;;1.20;0.77;;;27.50;23.50;;;;;;6109800;29;20031;-81
2021/05/09 21:28:56;;;;;;;3.85;0.77;;;27.50;23.40;;;;;;6126568;29;20099;-81
2021/05/09 21:31:57;;;;;;;7.47;1.17;;;27.50;23.10;;;;;;6109102;29;20032;-80
2021/05/09 21:35:01;;;;;;;1.35;0.68;;;27.50;23.10;;;;;;6105778;29;20046;-81
2021/05/09 21:38:02;;;;;;;2.85;0.82;;;27.50;23.10;;;;;;6109039;29;20024;-80
2021/05/09 21:41:05;;;;;;;3.72;0.90;;;27.50;23.00;;;;;;6118429;29;20099;-82
2021/05/09 21:44:06;;;;;;;2.00;0.98;;;27.50;22.90;;;;;;6115223;29;20510;-83
2021/05/09 21:47:08;;;;;;;3.88;0.75;;;27.50;22.90;;;;;;6124508;29;20097;-82
2021/05/09 21:50:13;;;;;;;1.48;1.00;;;27.60;22.90;;;;;;6120777;29;20114;-88
2021/05/09 21:53:16;;;;;;;2.38;0.68;;;27.70;22.90;;;;;;6132201;29;20034;-87
2021/05/09 21:56:19;;;;;;;1.75;0.90;;;27.60;22.70;;;;;;6135102;29;20028;-87
2021/05/09 21:59:24;;;;;;;2.28;0.90;;;27.70;22.80;;;;;;6150910;29;20039;-87
2021/05/09 22:02:26;;;;;;;5.95;0.90;;;27.80;23.00;;;;;;6121434;29;20054;-87
2021/05/09 22:05:29;;;;;;;6.78;0.90;;;27.80;23.00;;;;;;6119156;29;20036;-84
2021/05/09 22:08:31;;;;;;;1.27;0.70;;;27.80;23.00;;;;;;6093827;29;20107;-84
2021/05/09 22:11:32;;;;;;;4.57;1.23;;;27.80;23.00;;;;;;6105371;29;20129;-83
2021/05/09 22:14:36;;;;;;;2.65;0.70;;;27.80;23.00;;;;;;6126472;28;20023;-83
2021/05/09 22:17:38;;;;;;;0.98;0.73;;;27.80;23.10;;;;;;6103381;29;20027;-83
2021/05/09 22:20:40;;;;;;;7.45;1.00;;;27.80;23.20;;;;;;6098737;29;20035;-84
2021/05/09 22:23:42;;;;;;;3.47;0.70;;;27.80;23.50;;;;;;6111754;29;20031;-84
2021/05/09 22:26:48;;;;;;;3.00;0.70;;;27.80;23.70;;;;;;6093962;29;20039;-83
2021/05/09 22:29:50;;;;;;;2.83;0.98;;;27.80;23.80;;;;;;6115497;29;20403;-84
2021/05/09 22:32:52;;;;;;;0.90;0.80;;;27.80;24.00;;;;;;6096987;29;20126;-84
2021/05/09 22:35:53;;;;;;;7.18;0.77;;;27.80;24.10;;;;;;6093716;29;20049;-83
2021/05/09 22:38:56;;;;;;;2.67;1.35;;;27.70;24.20;;;;;;6112773;29;20039;-83
2021/05/09 22:42:00;;;;;;;2.28;1.00;;;27.70;24.40;;;;;;6088501;29;20142;-83
2021/05/09 22:45:02;;;;;;;2.60;1.00;;;27.60;24.50;;;;;;6121034;29;20439;-83
2021/05/09 22:48:03;;;;;;;1.80;1.00;;;27.60;24.60;;;;;;6103495;29;20031;-83
2021/05/09 22:51:06;;;;;;;4.57;0.77;;;27.50;24.80;;;;;;6108425;29;23079;-84
2021/05/09 22:54:08;;;;;;;6.07;1.02;;;27.50;24.90;;;;;;6123021;29;20028;-83
2021/05/09 22:57:12;;;;;;;1.17;0.88;;;27.50;25.00;;;;;;6121514;29;20165;-81
2021/05/09 23:00:15;;;;;;;3.42;1.15;;;27.50;25.10;;;;;;6103577;29;20047;-83
2021/05/09 23:03:17;;;;;;;4.97;0.80;;;27.40;26.60;;;;;;6112036;29;20051;-84
2021/05/09 23:06:19;;;;;;;2.45;0.75;;;27.20;27.20;;;;;;6104315;29;20399;-83
2021/05/09 23:09:22;;;;;;;3.00;0.90;;;27.00;27.40;;;;;;6112741;29;20040;-84
2021/05/09 23:12:23;;;;;;;1.10;0.80;;;27.00;27.70;;;;;;6109777;29;20032;-83
2021/05/09 23:15:24;;;;;;;1.85;1.02;;;26.80;27.60;;;;;;6108603;29;20522;-83
2021/05/09 23:18:38;;;;;;;3.25;0.80;;;26.80;28.10;;;;;;6126562;29;20058;-83
2021/05/09 23:21:39;;;;;;;1.40;1.02;;;26.70;27.50;;;;;;6105767;29;20028;-83
2021/05/09 23:24:40;;;;;;;1.20;0.82;;;26.70;27.40;;;;;;6123252;29;20043;-82
2021/05/09 23:27:41;;;;;;;1.10;0.70;;;26.70;27.30;;;;;;6111799;29;20036;-83
2021/05/09 23:30:44;;;;;;;2.15;0.90;;;26.70;28.00;;;;;;6115108;29;20035;-83
2021/05/09 23:33:45;;;;;;;1.42;0.50;;;26.30;28.90;;;;;;6118836;29;20052;-83
2021/05/09 23:36:46;;;;;;;3.35;0.80;;;26.10;29.30;;;;;;6113660;29;20340;-82
2021/05/09 23:39:47;;;;;;;1.40;0.73;;;26.00;30.00;;;;;;6123322;29;20042;-83
2021/05/09 23:42:48;;;;;;;1.15;0.68;;;26.00;30.30;;;;;;6115159;29;20043;-83
2021/05/09 23:45:49;;;;;;;2.65;0.85;;;26.00;30.20;;;;;;6118176;29;20205;-83
2021/05/09 23:48:53;;;;;;;3.35;0.70;;;26.00;30.40;;;;;;6095519;29;20029;-82
2021/05/09 23:51:54;;;;;;;7.82;0.90;;;26.00;30.20;;;;;;6104544;29;20043;-83
2021/05/09 23:54:55;;;;;;;4.75;0.60;;;26.00;30.80;;;;;;6112252;29;20490;-82
2021/05/09 23:57:56;;;;;;;0.88;0.55;;;25.80;31.80;;;;;;6110500;29;20029;-83
